sensor_id;sensor_type;location;lat;lon;timestamp;pressure;altitude;pressure_sealevel;temperature;humidity
19096;BME280;9680;52.520;13.332;2022-12-24T00:01:45;100061.59;;;6.22;96.32
19096;BME280;9680;52.520;13.332;2022-12-24T00:04:15;100059.84;;;6.22;96.65
19096;BME280;9680;52.520;13.332;2022-12-24T00:06:43;100064.88;;;6.27;96.58
19096;BME280;9680;52.520;13.332;2022-12-24T00:09:14;100067.53;;;6.25;96.89
19096;BME280;9680;52.520;13.332;2022-12-24T00:11:45;100056.31;;;6.25;96.69
19096;BME280;9680;52.520;13.332;2022-12-24T00:14:12;100062.44;;;6.22;96.79
19096;BME280;9680;52.520;13.332;2022-12-24T00:16:41;100055.69;;;6.18;96.88
19096;BME280;9680;52.520;13.332;2022-12-24T00:19:07;100059.16;;;6.17;96.87
19096;BME280;9680;52.520;13.332;2022-12-24T00:21:34;100053.13;;;6.17;97.14
19096;BME280;9680;52.520;13.332;2022-12-24T00:24:01;100051.50;;;6.14;97.03
19096;BME280;9680;52.520;13.332;2022-12-24T00:26:29;100061.84;;;6.14;97.04
19096;BME280;9680;52.520;13.332;2022-12-24T00:28:57;100054.91;;;6.15;97.06
19096;BME280;9680;52.520;13.332;2022-12-24T00:31:23;100061.88;;;6.12;97.06
19096;BME280;9680;52.520;13.332;2022-12-24T00:33:52;100058.44;;;6.12;96.93
19096;BME280;9680;52.520;13.332;2022-12-24T00:36:20;100056.69;;;6.12;96.94
19096;BME280;9680;52.520;13.332;2022-12-24T00:38:47;100062.91;;;6.07;96.26
19096;BME280;9680;52.520;13.332;2022-12-24T00:41:14;100058.75;;;6.01;96.47
19096;BME280;9680;52.520;13.332;2022-12-24T00:43:51;100067.38;;;6.00;96.56
19096;BME280;9680;52.520;13.332;2022-12-24T00:46:17;100066.66;;;5.96;96.74
19096;BME280;9680;52.520;13.332;2022-12-24T00:48:44;100076.91;;;6.00;97.08
19096;BME280;9680;52.520;13.332;2022-12-24T00:51:13;100070.06;;;5.97;96.90
19096;BME280;9680;52.520;13.332;2022-12-24T00:53:40;100076.91;;;6.00;97.14
19096;BME280;9680;52.520;13.332;2022-12-24T00:56:07;100080.25;;;6.03;97.03
19096;BME280;9680;52.520;13.332;2022-12-24T00:58:34;100084.41;;;6.09;97.50
19096;BME280;9680;52.520;13.332;2022-12-24T01:01:01;100085.25;;;6.09;97.15
19096;BME280;9680;52.520;13.332;2022-12-24T01:03:27;100088.59;;;6.13;96.94
19096;BME280;9680;52.520;13.332;2022-12-24T01:06:00;100089.50;;;6.10;96.82
19096;BME280;9680;52.520;13.332;2022-12-24T01:08:27;100094.69;;;6.10;96.82
19096;BME280;9680;52.520;13.332;2022-12-24T01:10:54;100098.06;;;6.12;96.81
19096;BME280;9680;52.520;13.332;2022-12-24T01:13:22;100096.34;;;6.13;96.88
19096;BME280;9680;52.520;13.332;2022-12-24T01:15:49;100098.03;;;6.14;96.85
19096;BME280;9680;52.520;13.332;2022-12-24T01:18:15;100103.16;;;6.16;96.55
19096;BME280;9680;52.520;13.332;2022-12-24T01:20:42;100104.00;;;6.16;96.89
19096;BME280;9680;52.520;13.332;2022-12-24T01:23:09;100105.75;;;6.16;96.34
19096;BME280;9680;52.520;13.332;2022-12-24T01:25:37;100104.00;;;6.16;96.40
19096;BME280;9680;52.520;13.332;2022-12-24T01:28:05;100109.22;;;6.15;96.55
19096;BME280;9680;52.520;13.332;2022-12-24T01:30:31;100108.38;;;6.14;96.43
19096;BME280;9680;52.520;13.332;2022-12-24T01:32:58;100109.22;;;6.15;96.32
19096;BME280;9680;52.520;13.332;2022-12-24T01:35:25;100110.91;;;6.16;96.37
19096;BME280;9680;52.520;13.332;2022-12-24T01:37:52;100111.63;;;6.21;96.67
19096;BME280;9680;52.520;13.332;2022-12-24T01:40:18;100113.38;;;6.20;96.46
19096;BME280;9680;52.520;13.332;2022-12-24T01:43:13;100109.09;;;6.19;96.17
19096;BME280;9680;52.520;13.332;2022-12-24T01:45:53;100116.00;;;6.19;95.97
19096;BME280;9680;52.520;13.332;2022-12-24T01:48:33;100122.84;;;6.20;96.33
19096;BME280;9680;52.520;13.332;2022-12-24T01:51:05;100128.84;;;6.22;96.41
19096;BME280;9680;52.520;13.332;2022-12-24T01:53:36;100122.81;;;6.21;96.03
19096;BME280;9680;52.520;13.332;2022-12-24T01:56:05;100124.47;;;6.24;96.02
19096;BME280;9680;52.520;13.332;2022-12-24T01:58:35;100131.22;;;6.28;96.18
19096;BME280;9680;52.520;13.332;2022-12-24T02:01:05;100138.06;;;6.31;95.99
19096;BME280;9680;52.520;13.332;2022-12-24T02:03:33;100133.75;;;6.31;96.00
19096;BME280;9680;52.520;13.332;2022-12-24T02:06:00;100143.22;;;6.32;95.67
19096;BME280;9680;52.520;13.332;2022-12-24T02:08:27;100150.97;;;6.32;95.40
19096;BME280;9680;52.520;13.332;2022-12-24T02:11:11;100152.75;;;6.30;95.59
19096;BME280;9680;52.520;13.332;2022-12-24T02:13:41;100150.13;;;6.32;95.46
19096;BME280;9680;52.520;13.332;2022-12-24T02:16:19;100160.56;;;6.29;95.24
19096;BME280;9680;52.520;13.332;2022-12-24T02:18:55;100156.31;;;6.26;95.23
19096;BME280;9680;52.520;13.332;2022-12-24T02:21:43;100161.47;;;6.26;95.00
19096;BME280;9680;52.520;13.332;2022-12-24T02:24:38;100167.53;;;6.25;95.43
19096;BME280;9680;52.520;13.332;2022-12-24T02:27:32;100167.50;;;6.26;95.25
19096;BME280;9680;52.520;13.332;2022-12-24T02:30:23;100187.25;;;6.29;95.26
19096;BME280;9680;52.520;13.332;2022-12-24T02:32:59;100189.00;;;6.29;95.39
19096;BME280;9680;52.520;13.332;2022-12-24T02:35:39;100186.59;;;6.22;95.03
19096;BME280;9680;52.520;13.332;2022-12-24T02:38:12;100192.59;;;6.23;95.30
19096;BME280;9680;52.520;13.332;2022-12-24T02:40:45;100196.81;;;6.27;95.29
19096;BME280;9680;52.520;13.332;2022-12-24T02:43:17;100197.59;;;6.29;95.19
19096;BME280;9680;52.520;13.332;2022-12-24T02:45:51;100193.28;;;6.30;95.08
19096;BME280;9680;52.520;13.332;2022-12-24T02:48:20;100193.31;;;6.28;95.06
19096;BME280;9680;52.520;13.332;2022-12-24T02:51:00;100205.38;;;6.29;95.11
19096;BME280;9680;52.520;13.332;2022-12-24T02:53:28;100204.41;;;6.33;95.10
19096;BME280;9680;52.520;13.332;2022-12-24T02:56:14;100216.41;;;6.36;95.18
19096;BME280;9680;52.520;13.332;2022-12-24T02:58:58;100209.53;;;6.35;94.89
19096;BME280;9680;52.520;13.332;2022-12-24T03:01:35;100215.59;;;6.34;94.88
19096;BME280;9680;52.520;13.332;2022-12-24T03:04:12;100221.56;;;6.36;95.05
19096;BME280;9680;52.520;13.332;2022-12-24T03:06:49;100218.16;;;6.35;94.83
19096;BME280;9680;52.520;13.332;2022-12-24T03:09:20;100214.75;;;6.33;94.77
19096;BME280;9680;52.520;13.332;2022-12-24T03:11:54;100216.47;;;6.33;94.49
19096;BME280;9680;52.520;13.332;2022-12-24T03:14:24;100219.88;;;6.35;95.04
19096;BME280;9680;52.520;13.332;2022-12-24T03:16:53;100222.47;;;6.35;94.80
19096;BME280;9680;52.520;13.332;2022-12-24T03:19:23;100221.66;;;6.33;94.91
19096;BME280;9680;52.520;13.332;2022-12-24T03:21:51;100224.16;;;6.36;94.68
19096;BME280;9680;52.520;13.332;2022-12-24T03:24:20;100228.50;;;6.35;94.69
19096;BME280;9680;52.520;13.332;2022-12-24T03:26:47;100231.97;;;6.34;94.70
19096;BME280;9680;52.520;13.332;2022-12-24T03:29:16;100237.16;;;6.34;94.76
19096;BME280;9680;52.520;13.332;2022-12-24T03:31:44;100237.09;;;6.36;95.19
19096;BME280;9680;52.520;13.332;2022-12-24T03:34:14;100240.41;;;6.41;95.06
19096;BME280;9680;52.520;13.332;2022-12-24T03:36:41;100247.50;;;6.34;94.38
19096;BME280;9680;52.520;13.332;2022-12-24T03:39:09;100249.28;;;6.32;94.34
19096;BME280;9680;52.520;13.332;2022-12-24T03:41:36;100251.81;;;6.34;94.63
19096;BME280;9680;52.520;13.332;2022-12-24T03:44:03;100259.47;;;6.38;94.58
19096;BME280;9680;52.520;13.332;2022-12-24T03:46:30;100259.47;;;6.38;94.57
19096;BME280;9680;52.520;13.332;2022-12-24T03:48:57;100263.75;;;6.39;94.38
19096;BME280;9680;52.520;13.332;2022-12-24T03:51:25;100262.78;;;6.42;94.45
19096;BME280;9680;52.520;13.332;2022-12-24T03:53:53;100271.50;;;6.39;94.00
19096;BME280;9680;52.520;13.332;2022-12-24T03:56:20;100270.63;;;6.40;94.14
19096;BME280;9680;52.520;13.332;2022-12-24T03:58:47;100273.28;;;6.37;94.22
19096;BME280;9680;52.520;13.332;2022-12-24T04:01:14;100277.47;;;6.41;94.20
19096;BME280;9680;52.520;13.332;2022-12-24T04:03:41;100279.97;;;6.45;94.27
19096;BME280;9680;52.520;13.332;2022-12-24T04:06:09;100284.38;;;6.41;93.91
19096;BME280;9680;52.520;13.332;2022-12-24T04:08:38;100286.06;;;6.42;93.81
19096;BME280;9680;52.520;13.332;2022-12-24T04:11:07;100277.47;;;6.41;93.63
19096;BME280;9680;52.520;13.332;2022-12-24T04:13:34;100270.63;;;6.40;93.77
19096;BME280;9680;52.520;13.332;2022-12-24T04:16:03;100269.66;;;6.43;93.72
19096;BME280;9680;52.520;13.332;2022-12-24T04:18:31;100282.56;;;6.45;93.54
19096;BME280;9680;52.520;13.332;2022-12-24T04:20:58;100279.91;;;6.48;93.78
19096;BME280;9680;52.520;13.332;2022-12-24T04:23:25;100288.47;;;6.50;93.51
19096;BME280;9680;52.520;13.332;2022-12-24T04:25:53;100293.53;;;6.53;93.64
19096;BME280;9680;52.520;13.332;2022-12-24T04:28:20;100297.91;;;6.51;93.06
19096;BME280;9680;52.520;13.332;2022-12-24T04:30:46;100298.81;;;6.50;93.35
19096;BME280;9680;52.520;13.332;2022-12-24T04:33:13;100302.94;;;6.55;93.57
19096;BME280;9680;52.520;13.332;2022-12-24T04:35:40;100309.88;;;6.55;93.06
19096;BME280;9680;52.520;13.332;2022-12-24T04:38:07;100309.91;;;6.53;92.75
19096;BME280;9680;52.520;13.332;2022-12-24T04:40:34;100315.00;;;6.56;92.96
19096;BME280;9680;52.520;13.332;2022-12-24T04:43:03;100321.75;;;6.62;93.04
19096;BME280;9680;52.520;13.332;2022-12-24T04:45:30;100333.78;;;6.65;92.66
19096;BME280;9680;52.520;13.332;2022-12-24T04:47:57;100331.13;;;6.66;92.57
19096;BME280;9680;52.520;13.332;2022-12-24T04:50:24;100343.16;;;6.69;92.54
19096;BME280;9680;52.520;13.332;2022-12-24T04:52:50;100336.41;;;6.63;92.31
19096;BME280;9680;52.520;13.332;2022-12-24T04:55:18;100334.66;;;6.64;92.54
19096;BME280;9680;52.520;13.332;2022-12-24T04:57:44;100335.56;;;6.63;92.28
19096;BME280;9680;52.520;13.332;2022-12-24T05:00:13;100337.28;;;6.62;92.41
19096;BME280;9680;52.520;13.332;2022-12-24T05:02:40;100338.00;;;6.67;92.30
19096;BME280;9680;52.520;13.332;2022-12-24T05:05:07;100343.06;;;6.72;92.35
19096;BME280;9680;52.520;13.332;2022-12-24T05:07:34;100343.06;;;6.72;92.09
19096;BME280;9680;52.520;13.332;2022-12-24T05:10:01;100346.41;;;6.76;92.18
19096;BME280;9680;52.520;13.332;2022-12-24T05:12:28;100345.66;;;6.72;91.83
19096;BME280;9680;52.520;13.332;2022-12-24T05:14:55;100338.78;;;6.71;91.84
19096;BME280;9680;52.520;13.332;2022-12-24T05:17:23;100331.03;;;6.69;91.58
19096;BME280;9680;52.520;13.332;2022-12-24T05:19:49;100336.38;;;6.65;91.64
19096;BME280;9680;52.520;13.332;2022-12-24T05:22:16;100340.66;;;6.66;91.56
19096;BME280;9680;52.520;13.332;2022-12-24T05:25:00;100344.88;;;6.68;91.51
19096;BME280;9680;52.520;13.332;2022-12-24T05:27:44;100337.25;;;6.64;91.32
19096;BME280;9680;52.520;13.332;2022-12-24T05:30:12;100342.34;;;6.67;91.80
19096;BME280;9680;52.520;13.332;2022-12-24T05:32:40;100340.56;;;6.69;91.85
19096;BME280;9680;52.520;13.332;2022-12-24T05:35:07;100341.31;;;6.73;91.91
19096;BME280;9680;52.520;13.332;2022-12-24T05:37:34;100345.69;;;6.70;91.40
19096;BME280;9680;52.520;13.332;2022-12-24T05:40:01;100336.22;;;6.69;91.71
19096;BME280;9680;52.520;13.332;2022-12-24T05:42:27;100338.00;;;6.67;91.54
19096;BME280;9680;52.520;13.332;2022-12-24T05:44:54;100354.41;;;6.68;91.62
19096;BME280;9680;52.520;13.332;2022-12-24T05:47:21;100358.72;;;6.67;91.37
19096;BME280;9680;52.520;13.332;2022-12-24T05:49:49;100357.81;;;6.68;91.69
19096;BME280;9680;52.520;13.332;2022-12-24T05:52:16;100359.56;;;6.68;91.46
19096;BME280;9680;52.520;13.332;2022-12-24T05:54:42;100366.38;;;6.70;91.48
19096;BME280;9680;52.520;13.332;2022-12-24T05:57:09;100362.91;;;6.72;91.48
19096;BME280;9680;52.520;13.332;2022-12-24T05:59:36;100378.50;;;6.70;91.38
19096;BME280;9680;52.520;13.332;2022-12-24T06:02:03;100374.31;;;6.66;91.03
19096;BME280;9680;52.520;13.332;2022-12-24T06:04:29;100376.09;;;6.64;90.94
19096;BME280;9680;52.520;13.332;2022-12-24T06:06:57;100379.50;;;6.64;91.11
19096;BME280;9680;52.520;13.332;2022-12-24T06:09:24;100385.50;;;6.66;91.04
19096;BME280;9680;52.520;13.332;2022-12-24T06:11:51;100382.00;;;6.67;91.23
19096;BME280;9680;52.520;13.332;2022-12-24T06:14:18;100387.19;;;6.67;91.47
19096;BME280;9680;52.520;13.332;2022-12-24T06:16:44;100388.13;;;6.65;91.21
19096;BME280;9680;52.520;13.332;2022-12-24T06:19:11;100395.03;;;6.64;90.97
19096;BME280;9680;52.520;13.332;2022-12-24T06:21:38;100397.69;;;6.63;91.08
19096;BME280;9680;52.520;13.332;2022-12-24T06:24:07;100398.53;;;6.63;91.14
19096;BME280;9680;52.520;13.332;2022-12-24T06:26:33;100410.56;;;6.64;91.04
19096;BME280;9680;52.520;13.332;2022-12-24T06:29:00;100410.63;;;6.63;91.19
19096;BME280;9680;52.520;13.332;2022-12-24T06:31:27;100414.91;;;6.64;91.24
19096;BME280;9680;52.520;13.332;2022-12-24T06:33:54;100424.38;;;6.65;91.05
19096;BME280;9680;52.520;13.332;2022-12-24T06:36:22;100425.38;;;6.59;91.20
19096;BME280;9680;52.520;13.332;2022-12-24T06:38:50;100419.41;;;6.55;91.54
19096;BME280;9680;52.520;13.332;2022-12-24T06:41:19;100421.13;;;6.56;91.86
19096;BME280;9680;52.520;13.332;2022-12-24T06:43:47;100412.44;;;6.59;92.04
19096;BME280;9680;52.520;13.332;2022-12-24T06:46:14;100415.91;;;6.58;91.43
19096;BME280;9680;52.520;13.332;2022-12-24T06:48:42;100422.88;;;6.56;91.65
19096;BME280;9680;52.520;13.332;2022-12-24T06:51:09;100422.06;;;6.54;91.85
19096;BME280;9680;52.520;13.332;2022-12-24T06:53:37;100427.22;;;6.54;91.76
19096;BME280;9680;52.520;13.332;2022-12-24T06:56:05;100430.66;;;6.54;92.04
19096;BME280;9680;52.520;13.332;2022-12-24T06:58:34;100433.38;;;6.50;91.82
19096;BME280;9680;52.520;13.332;2022-12-24T07:01:01;100443.72;;;6.50;92.18
19096;BME280;9680;52.520;13.332;2022-12-24T07:03:29;100450.59;;;6.51;92.06
19096;BME280;9680;52.520;13.332;2022-12-24T07:05:56;100449.81;;;6.47;91.96
19096;BME280;9680;52.520;13.332;2022-12-24T07:08:24;100448.94;;;6.48;92.12
19096;BME280;9680;52.520;13.332;2022-12-24T07:10:51;100453.22;;;6.49;92.76
19096;BME280;9680;52.520;13.332;2022-12-24T07:13:18;100467.06;;;6.48;92.10
19096;BME280;9680;52.520;13.332;2022-12-24T07:15:56;100473.13;;;6.47;92.28
19096;BME280;9680;52.520;13.332;2022-12-24T07:18:22;100480.84;;;6.49;92.63
19096;BME280;9680;52.520;13.332;2022-12-24T07:20:49;100483.44;;;6.49;92.42
19096;BME280;9680;52.520;13.332;2022-12-24T07:23:23;100490.34;;;6.48;92.82
19096;BME280;9680;52.520;13.332;2022-12-24T07:25:50;100488.63;;;6.47;92.69
19096;BME280;9680;52.520;13.332;2022-12-24T07:28:18;100501.63;;;6.46;92.48
19096;BME280;9680;52.520;13.332;2022-12-24T07:30:48;100506.81;;;6.46;92.80
19096;BME280;9680;52.520;13.332;2022-12-24T07:33:16;100506.75;;;6.47;92.42
19096;BME280;9680;52.520;13.332;2022-12-24T07:35:43;100505.03;;;6.48;92.85
19096;BME280;9680;52.520;13.332;2022-12-24T07:38:13;100498.03;;;6.51;92.63
19096;BME280;9680;52.520;13.332;2022-12-24T07:40:55;100501.47;;;6.52;92.82
19096;BME280;9680;52.520;13.332;2022-12-24T07:43:22;100497.94;;;6.54;92.77
19096;BME280;9680;52.520;13.332;2022-12-24T07:45:53;100502.38;;;6.51;92.66
19096;BME280;9680;52.520;13.332;2022-12-24T07:48:21;100516.13;;;6.51;92.70
19096;BME280;9680;52.520;13.332;2022-12-24T07:50:48;100521.38;;;6.50;93.02
19096;BME280;9680;52.520;13.332;2022-12-24T07:53:15;100519.63;;;6.50;92.72
19096;BME280;9680;52.520;13.332;2022-12-24T07:55:42;100520.34;;;6.55;93.27
19096;BME280;9680;52.520;13.332;2022-12-24T07:58:09;100525.38;;;6.62;93.02
19096;BME280;9680;52.520;13.332;2022-12-24T08:00:36;100518.38;;;6.67;93.16
19096;BME280;9680;52.520;13.332;2022-12-24T08:03:04;100520.81;;;6.72;92.77
19096;BME280;9680;52.520;13.332;2022-12-24T08:05:32;100524.31;;;6.70;92.50
19096;BME280;9680;52.520;13.332;2022-12-24T08:07:59;100522.53;;;6.73;92.46
19096;BME280;9680;52.520;13.332;2022-12-24T08:10:26;100528.66;;;6.70;92.24
19096;BME280;9680;52.520;13.332;2022-12-24T08:12:53;100529.56;;;6.67;92.39
19096;BME280;9680;52.520;13.332;2022-12-24T08:15:20;100528.59;;;6.72;92.69
19096;BME280;9680;52.520;13.332;2022-12-24T08:17:46;100525.91;;;6.76;92.68
19096;BME280;9680;52.520;13.332;2022-12-24T08:20:15;100530.28;;;6.73;91.89
19096;BME280;9680;52.520;13.332;2022-12-24T08:22:43;100525.03;;;6.76;92.39
19096;BME280;9680;52.520;13.332;2022-12-24T08:25:10;100529.25;;;6.80;92.64
19096;BME280;9680;52.520;13.332;2022-12-24T08:27:42;100540.38;;;6.83;92.17
19096;BME280;9680;52.520;13.332;2022-12-24T08:30:21;100546.47;;;6.82;92.50
19096;BME280;9680;52.520;13.332;2022-12-24T08:32:48;100543.81;;;6.84;92.59
19096;BME280;9680;52.520;13.332;2022-12-24T08:35:17;100550.69;;;6.85;92.51
19096;BME280;9680;52.520;13.332;2022-12-24T08:37:51;100551.56;;;6.85;92.31
19096;BME280;9680;52.520;13.332;2022-12-24T08:40:43;100544.63;;;6.86;92.32
19096;BME280;9680;52.520;13.332;2022-12-24T08:46:54;100561.78;;;6.90;92.63
19096;BME280;9680;52.520;13.332;2022-12-24T08:49:21;100556.56;;;6.92;92.21
19096;BME280;9680;52.520;13.332;2022-12-24T08:51:51;100560.06;;;6.91;91.91
19096;BME280;9680;52.520;13.332;2022-12-24T08:54:17;100556.59;;;6.90;91.94
19096;BME280;9680;52.520;13.332;2022-12-24T08:56:45;100572.13;;;6.90;91.95
19096;BME280;9680;52.520;13.332;2022-12-24T08:59:12;100566.88;;;6.93;92.44
19096;BME280;9680;52.520;13.332;2022-12-24T09:01:39;100567.75;;;6.94;92.18
19096;BME280;9680;52.520;13.332;2022-12-24T09:04:05;100577.19;;;6.96;92.56
19096;BME280;9680;52.520;13.332;2022-12-24T09:06:33;100575.34;;;7.00;92.73
19096;BME280;9680;52.520;13.332;2022-12-24T09:09:01;100573.63;;;7.01;92.46
19096;BME280;9680;52.520;13.332;2022-12-24T09:11:29;100583.03;;;7.05;92.37
19096;BME280;9680;52.520;13.332;2022-12-24T09:13:56;100595.00;;;7.09;92.47
19096;BME280;9680;52.520;13.332;2022-12-24T09:16:22;100589.84;;;7.07;92.06
19096;BME280;9680;52.520;13.332;2022-12-24T09:18:49;100592.34;;;7.10;92.35
19096;BME280;9680;52.520;13.332;2022-12-24T09:21:16;100600.84;;;7.17;92.15
19096;BME280;9680;52.520;13.332;2022-12-24T09:23:45;100601.72;;;7.16;91.64
19096;BME280;9680;52.520;13.332;2022-12-24T09:26:17;100610.38;;;7.15;91.65
19096;BME280;9680;52.520;13.332;2022-12-24T09:28:44;100621.59;;;7.16;91.48
19096;BME280;9680;52.520;13.332;2022-12-24T09:31:12;100616.38;;;7.17;91.58
19096;BME280;9680;52.520;13.332;2022-12-24T09:33:40;100624.06;;;7.20;91.77
19096;BME280;9680;52.520;13.332;2022-12-24T09:36:09;100623.13;;;7.23;91.68
19096;BME280;9680;52.520;13.332;2022-12-24T09:38:36;100633.50;;;7.23;91.71
19096;BME280;9680;52.520;13.332;2022-12-24T09:41:11;100643.75;;;7.27;91.87
19096;BME280;9680;52.520;13.332;2022-12-24T09:43:45;100636.69;;;7.34;91.94
19096;BME280;9680;52.520;13.332;2022-12-24T09:46:20;100638.25;;;7.40;91.62
19096;BME280;9680;52.520;13.332;2022-12-24T09:48:50;100632.16;;;7.41;91.34
19096;BME280;9680;52.520;13.332;2022-12-24T09:51:24;100646.91;;;7.39;91.21
19096;BME280;9680;52.520;13.332;2022-12-24T09:53:56;100652.97;;;7.38;91.39
19096;BME280;9680;52.520;13.332;2022-12-24T09:56:30;100652.00;;;7.42;91.05
19096;BME280;9680;52.520;13.332;2022-12-24T09:59:02;100658.06;;;7.42;91.01
19096;BME280;9680;52.520;13.332;2022-12-24T10:01:31;100657.91;;;7.47;91.47
19096;BME280;9680;52.520;13.332;2022-12-24T10:04:01;100658.66;;;7.52;91.25
19096;BME280;9680;52.520;13.332;2022-12-24T10:06:33;100664.72;;;7.51;90.92
19096;BME280;9680;52.520;13.332;2022-12-24T10:09:10;100676.94;;;7.48;91.04
19096;BME280;9680;52.520;13.332;2022-12-24T10:11:44;100676.97;;;7.46;91.20
19096;BME280;9680;52.520;13.332;2022-12-24T10:14:28;100672.59;;;7.48;91.56
19096;BME280;9680;52.520;13.332;2022-12-24T10:17:02;100676.72;;;7.55;91.80
19096;BME280;9680;52.520;13.332;2022-12-24T10:19:43;100686.88;;;7.65;91.80
19096;BME280;9680;52.520;13.332;2022-12-24T10:22:20;100686.63;;;7.74;91.84
19096;BME280;9680;52.520;13.332;2022-12-24T10:24:54;100676.00;;;7.82;91.76
19096;BME280;9680;52.520;13.332;2022-12-24T10:27:28;100688.72;;;7.91;91.48
19096;BME280;9680;52.520;13.332;2022-12-24T10:30:02;100686.72;;;8.02;91.58
19096;BME280;9680;52.520;13.332;2022-12-24T10:32:32;100695.06;;;8.12;91.01
19096;BME280;9680;52.520;13.332;2022-12-24T10:35:05;100699.31;;;8.15;90.74
19096;BME280;9680;52.520;13.332;2022-12-24T10:37:34;100707.94;;;8.15;90.32
19096;BME280;9680;52.520;13.332;2022-12-24T10:40:02;100718.38;;;8.14;90.46
19096;BME280;9680;52.520;13.332;2022-12-24T10:42:36;100714.09;;;8.13;90.79
19096;BME280;9680;52.520;13.332;2022-12-24T10:45:06;100719.94;;;8.20;90.62
19096;BME280;9680;52.520;13.332;2022-12-24T10:47:35;100717.34;;;8.20;90.62
19096;BME280;9680;52.520;13.332;2022-12-24T10:50:04;100718.97;;;8.24;90.67
19096;BME280;9680;52.520;13.332;2022-12-24T10:52:39;100720.91;;;8.17;90.43
19096;BME280;9680;52.520;13.332;2022-12-24T10:55:10;100723.50;;;8.15;90.76
19096;BME280;9680;52.520;13.332;2022-12-24T10:57:38;100717.44;;;8.16;90.61
19096;BME280;9680;52.520;13.332;2022-12-24T11:00:18;100724.56;;;8.10;90.73
19096;BME280;9680;52.520;13.332;2022-12-24T11:02:46;100738.63;;;8.01;90.62
19096;BME280;9680;52.520;13.332;2022-12-24T11:05:27;100740.50;;;7.96;90.82
19096;BME280;9680;52.520;13.332;2022-12-24T11:08:01;100740.75;;;7.85;91.01
19096;BME280;9680;52.520;13.332;2022-12-24T11:10:28;100746.94;;;7.81;91.22
19096;BME280;9680;52.520;13.332;2022-12-24T11:12:56;100748.59;;;7.83;91.35
19096;BME280;9680;52.520;13.332;2022-12-24T11:15:28;100747.63;;;7.87;92.29
19096;BME280;9680;52.520;13.332;2022-12-24T11:17:58;100752.66;;;7.94;92.23
19096;BME280;9680;52.520;13.332;2022-12-24T11:20:30;100749.13;;;7.96;91.68
19096;BME280;9680;52.520;13.332;2022-12-24T11:22:58;100753.34;;;8.00;91.86
19096;BME280;9680;52.520;13.332;2022-12-24T11:25:26;100748.72;;;8.12;92.19
19096;BME280;9680;52.520;13.332;2022-12-24T11:27:56;100752.13;;;8.14;91.67
19096;BME280;9680;52.520;13.332;2022-12-24T11:30:38;100754.66;;;8.15;91.56
19096;BME280;9680;52.520;13.332;2022-12-24T11:33:16;100751.16;;;8.16;91.51
19096;BME280;9680;52.520;13.332;2022-12-24T11:35:47;100746.22;;;8.09;90.57
19096;BME280;9680;52.520;13.332;2022-12-24T11:38:19;100756.94;;;7.96;91.40
19096;BME280;9680;52.520;13.332;2022-12-24T11:40:48;100767.25;;;7.98;91.58
19096;BME280;9680;52.520;13.332;2022-12-24T11:43:17;100764.41;;;8.07;91.72
19096;BME280;9680;52.520;13.332;2022-12-24T11:45:50;100756.66;;;8.06;91.93
19096;BME280;9680;52.520;13.332;2022-12-24T11:48:28;100757.25;;;8.15;91.85
19096;BME280;9680;52.520;13.332;2022-12-24T11:50:57;100756.97;;;8.26;91.56
19096;BME280;9680;52.520;13.332;2022-12-24T11:53:28;100753.56;;;8.24;91.07
19096;BME280;9680;52.520;13.332;2022-12-24T11:55:58;100758.56;;;8.32;91.63
19096;BME280;9680;52.520;13.332;2022-12-24T11:58:31;100769.75;;;8.34;91.02
19096;BME280;9680;52.520;13.332;2022-12-24T12:01:08;100773.16;;;8.35;90.83
19096;BME280;9680;52.520;13.332;2022-12-24T12:03:39;100762.59;;;8.42;90.87
19096;BME280;9680;52.520;13.332;2022-12-24T12:06:19;100766.00;;;8.43;90.75
19096;BME280;9680;52.520;13.332;2022-12-24T12:08:49;100773.69;;;8.48;91.02
19096;BME280;9680;52.520;13.332;2022-12-24T12:11:20;100776.22;;;8.51;90.34
19096;BME280;9680;52.520;13.332;2022-12-24T12:13:48;100771.75;;;8.56;90.55
19096;BME280;9680;52.520;13.332;2022-12-24T12:16:20;100782.81;;;8.63;90.63
19096;BME280;9680;52.520;13.332;2022-12-24T12:18:52;100768.03;;;8.65;90.44
19096;BME280;9680;52.520;13.332;2022-12-24T12:21:24;100773.88;;;8.71;90.47
19096;BME280;9680;52.520;13.332;2022-12-24T12:23:56;100770.69;;;8.92;91.24
19096;BME280;9680;52.520;13.332;2022-12-24T12:26:26;100771.06;;;9.08;90.50
19096;BME280;9680;52.520;13.332;2022-12-24T12:28:56;100786.13;;;9.25;90.33
19096;BME280;9680;52.520;13.332;2022-12-24T12:31:29;100788.00;;;9.48;89.92
19096;BME280;9680;52.520;13.332;2022-12-24T12:34:02;100789.59;;;9.52;88.41
19096;BME280;9680;52.520;13.332;2022-12-24T12:36:43;100791.59;;;9.44;87.65
19096;BME280;9680;52.520;13.332;2022-12-24T12:39:11;100802.28;;;9.35;87.62
19096;BME280;9680;52.520;13.332;2022-12-24T12:41:47;100796.72;;;9.18;87.40
19096;BME280;9680;52.520;13.332;2022-12-24T12:44:42;100798.00;;;9.05;88.29
19096;BME280;9680;52.520;13.332;2022-12-24T12:47:33;100801.38;;;9.09;88.96
19096;BME280;9680;52.520;13.332;2022-12-24T12:50:10;100804.75;;;9.11;89.29
19096;BME280;9680;52.520;13.332;2022-12-24T12:55:46;100808.97;;;9.15;89.25
19096;BME280;9680;52.520;13.332;2022-12-24T12:58:20;100809.78;;;9.17;89.42
19096;BME280;9680;52.520;13.332;2022-12-24T13:00:51;100813.88;;;9.24;89.66
19096;BME280;9680;52.520;13.332;2022-12-24T13:03:42;100816.19;;;9.33;89.89
19096;BME280;9680;52.520;13.332;2022-12-24T13:06:30;100817.69;;;9.41;89.47
19096;BME280;9680;52.520;13.332;2022-12-24T13:09:10;100809.69;;;9.47;89.40
19096;BME280;9680;52.520;13.332;2022-12-24T13:11:54;100819.16;;;9.50;89.25
19096;BME280;9680;52.520;13.332;2022-12-24T13:14:42;100818.38;;;9.46;88.70
19096;BME280;9680;52.520;13.332;2022-12-24T13:20:23;100821.78;;;9.48;89.32
19096;BME280;9680;52.520;13.332;2022-12-24T13:22:55;100819.00;;;9.54;89.55
19096;BME280;9680;52.520;13.332;2022-12-24T13:25:28;100817.09;;;9.59;89.45
19096;BME280;9680;52.520;13.332;2022-12-24T13:27:56;100815.44;;;9.57;89.21